KCRG/CRG METAR and TAF weather

Enter ICAO airport designator
Station Type Date Time Source
KCRG METAR 2018/04/20 08:53 UTC NOAA

KCRG 200853Z AUTO 02011KT 10SM OVC065 19/10 A3010 RMK AO2 SLP190 T01890100 53010


Station Type Date Time Source
KCRG Decoded METAR 2018/04/20 08:53 UTC NOAA

JACKSONVILLE CRAIG MUN, FL, United States (KCRG) 30-20N 81-31W 13M
Apr 20, 2018 - 04:53 AM EDT / 2018.04.20 0853 UTC
Wind: from the NNE (020 degrees) at 13 MPH (11 KT):0
Visibility: 10 mile(s):0
Sky conditions: overcast
Temperature: 66.0 F (18.9 C)
Dew Point: 50.0 F (10.0 C)
Relative Humidity: 56%
Pressure (altimeter): 30.1 in. Hg (1019 hPa)
Pressure tendency: 0.03 inches (1.0 hPa) higher than three hours ago
ob: KCRG 200853Z AUTO 02011KT 10SM OVC065 19/10 A3010 RMK AO2 SLP190 T01890100 53010
cycle: 9

Station Type Date Time Source
KCRG TAF 2018/04/20 06:54 UTC NOAA

TAF KCRG 200553Z 2006/2106 33008KT P6SM SCT050
FM201100 03015G22KT P6SM SCT040 BKN080
FM201400 05017G27KT P6SM BKN025
FM202300 04012G20KT P6SM SCT015 BKN025


Example: see airport list